sensor_id;sensor_type;location;lat;lon;timestamp;P1;durP1;ratioP1;P2;durP2;ratioP2
29210;SDS011;16250;49.932;10.980;2023-05-16T00:00:01;66.93;;;63.53;;
29210;SDS011;16250;49.932;10.980;2023-05-16T00:02:30;65.53;;;62.22;;
29210;SDS011;16250;49.932;10.980;2023-05-16T00:05:15;65.95;;;62.63;;
29210;SDS011;16250;49.932;10.980;2023-05-16T00:34:08;77.00;;;72.95;;
29210;SDS011;16250;49.932;10.980;2023-05-16T00:36:34;74.13;;;70.38;;
29210;SDS011;16250;49.932;10.980;2023-05-16T00:39:00;80.25;;;75.97;;
29210;SDS011;16250;49.932;10.980;2023-05-16T00:41:25;78.88;;;74.60;;
29210;SDS011;16250;49.932;10.980;2023-05-16T00:43:51;80.15;;;76.00;;
29210;SDS011;16250;49.932;10.980;2023-05-16T00:46:17;74.50;;;70.63;;
29210;SDS011;16250;49.932;10.980;2023-05-16T00:48:42;74.78;;;70.90;;
29210;SDS011;16250;49.932;10.980;2023-05-16T00:51:07;72.80;;;69.20;;
29210;SDS011;16250;49.932;10.980;2023-05-16T00:53:33;69.20;;;65.80;;
29210;SDS011;16250;49.932;10.980;2023-05-16T00:56:01;69.70;;;66.20;;
29210;SDS011;16250;49.932;10.980;2023-05-16T00:58:29;69.22;;;65.82;;
29210;SDS011;16250;49.932;10.980;2023-05-16T01:00:56;79.65;;;75.53;;
29210;SDS011;16250;49.932;10.980;2023-05-16T01:03:22;82.28;;;77.97;;
29210;SDS011;16250;49.932;10.980;2023-05-16T01:05:48;85.35;;;80.78;;
29210;SDS011;16250;49.932;10.980;2023-05-16T01:08:13;85.03;;;80.45;;
29210;SDS011;16250;49.932;10.980;2023-05-16T01:10:43;79.82;;;75.60;;
29210;SDS011;16250;49.932;10.980;2023-05-16T01:13:17;78.22;;;74.32;;
29210;SDS011;16250;49.932;10.980;2023-05-16T01:16:08;79.28;;;75.25;;
29210;SDS011;16250;49.932;10.980;2023-05-16T01:21:11;72.22;;;68.43;;
29210;SDS011;16250;49.932;10.980;2023-05-16T01:28:46;79.22;;;75.22;;
29210;SDS011;16250;49.932;10.980;2023-05-16T01:31:12;76.75;;;72.88;;
29210;SDS011;16250;49.932;10.980;2023-05-16T01:33:38;78.60;;;74.45;;
29210;SDS011;16250;49.932;10.980;2023-05-16T01:36:10;70.78;;;67.18;;
29210;SDS011;16250;49.932;10.980;2023-05-16T01:38:58;75.97;;;72.07;;
29210;SDS011;16250;49.932;10.980;2023-05-16T01:41:46;72.50;;;68.72;;
29210;SDS011;16250;49.932;10.980;2023-05-16T01:46:58;72.25;;;68.55;;
29210;SDS011;16250;49.932;10.980;2023-05-16T01:49:26;75.15;;;71.30;;
29210;SDS011;16250;49.932;10.980;2023-05-16T01:51:55;75.47;;;71.57;;
29210;SDS011;16250;49.932;10.980;2023-05-16T01:54:25;73.97;;;70.28;;
29210;SDS011;16250;49.932;10.980;2023-05-16T01:56:55;73.43;;;69.65;;
29210;SDS011;16250;49.932;10.980;2023-05-16T01:59:22;69.80;;;66.28;;
29210;SDS011;16250;49.932;10.980;2023-05-16T02:01:48;79.85;;;75.75;;
29210;SDS011;16250;49.932;10.980;2023-05-16T02:04:13;71.28;;;67.53;;
29210;SDS011;16250;49.932;10.980;2023-05-16T02:06:41;74.07;;;70.18;;
29210;SDS011;16250;49.932;10.980;2023-05-16T02:09:06;76.07;;;72.00;;
29210;SDS011;16250;49.932;10.980;2023-05-16T02:11:32;76.82;;;72.93;;
29210;SDS011;16250;49.932;10.980;2023-05-16T02:13:58;75.13;;;70.93;;
29210;SDS011;16250;49.932;10.980;2023-05-16T02:16:23;71.20;;;67.18;;
29210;SDS011;16250;49.932;10.980;2023-05-16T02:18:49;70.28;;;66.40;;
29210;SDS011;16250;49.932;10.980;2023-05-16T02:21:14;70.50;;;66.93;;
29210;SDS011;16250;49.932;10.980;2023-05-16T02:23:40;68.95;;;65.05;;
29210;SDS011;16250;49.932;10.980;2023-05-16T02:26:05;75.95;;;72.00;;
29210;SDS011;16250;49.932;10.980;2023-05-16T02:28:31;71.20;;;67.32;;
29210;SDS011;16250;49.932;10.980;2023-05-16T02:30:59;70.47;;;66.78;;
29210;SDS011;16250;49.932;10.980;2023-05-16T02:33:25;68.72;;;65.15;;
29210;SDS011;16250;49.932;10.980;2023-05-16T02:35:52;70.90;;;66.90;;
29210;SDS011;16250;49.932;10.980;2023-05-16T02:38:18;70.82;;;66.93;;
29210;SDS011;16250;49.932;10.980;2023-05-16T02:40:45;66.90;;;63.20;;
29210;SDS011;16250;49.932;10.980;2023-05-16T02:43:11;67.10;;;63.72;;
29210;SDS011;16250;49.932;10.980;2023-05-16T02:45:37;69.60;;;66.00;;
29210;SDS011;16250;49.932;10.980;2023-05-16T02:48:02;73.95;;;69.85;;
29210;SDS011;16250;49.932;10.980;2023-05-16T02:50:27;73.38;;;69.28;;
29210;SDS011;16250;49.932;10.980;2023-05-16T02:52:53;75.00;;;70.97;;
29210;SDS011;16250;49.932;10.980;2023-05-16T02:55:18;74.07;;;70.13;;
29210;SDS011;16250;49.932;10.980;2023-05-16T02:57:44;78.45;;;74.25;;
29210;SDS011;16250;49.932;10.980;2023-05-16T03:00:10;76.97;;;72.88;;
29210;SDS011;16250;49.932;10.980;2023-05-16T03:02:36;74.10;;;70.03;;
29210;SDS011;16250;49.932;10.980;2023-05-16T03:05:02;76.93;;;72.72;;
29210;SDS011;16250;49.932;10.980;2023-05-16T03:07:29;75.30;;;71.03;;
29210;SDS011;16250;49.932;10.980;2023-05-16T03:09:55;74.47;;;70.18;;
29210;SDS011;16250;49.932;10.980;2023-05-16T03:12:20;72.20;;;68.38;;
29210;SDS011;16250;49.932;10.980;2023-05-16T03:14:45;72.40;;;68.25;;
29210;SDS011;16250;49.932;10.980;2023-05-16T03:17:11;69.50;;;65.60;;
29210;SDS011;16250;49.932;10.980;2023-05-16T03:19:36;63.92;;;60.63;;
29210;SDS011;16250;49.932;10.980;2023-05-16T03:22:02;61.75;;;58.50;;
29210;SDS011;16250;49.932;10.980;2023-05-16T03:24:28;61.72;;;58.63;;
29210;SDS011;16250;49.932;10.980;2023-05-16T03:26:53;63.28;;;59.85;;
29210;SDS011;16250;49.932;10.980;2023-05-16T03:29:19;59.42;;;56.33;;
29210;SDS011;16250;49.932;10.980;2023-05-16T03:31:45;60.47;;;57.28;;
29210;SDS011;16250;49.932;10.980;2023-05-16T03:34:10;60.10;;;56.85;;
29210;SDS011;16250;49.932;10.980;2023-05-16T03:36:37;58.75;;;55.60;;
29210;SDS011;16250;49.932;10.980;2023-05-16T03:39:03;63.55;;;60.17;;
29210;SDS011;16250;49.932;10.980;2023-05-16T03:41:28;64.18;;;60.65;;
29210;SDS011;16250;49.932;10.980;2023-05-16T03:43:53;62.00;;;58.72;;
29210;SDS011;16250;49.932;10.980;2023-05-16T03:46:19;65.82;;;62.28;;
29210;SDS011;16250;49.932;10.980;2023-05-16T03:48:44;274.77;;;248.75;;
29210;SDS011;16250;49.932;10.980;2023-05-16T03:51:10;93.57;;;87.22;;
29210;SDS011;16250;49.932;10.980;2023-05-16T03:53:36;363.40;;;333.17;;
29210;SDS011;16250;49.932;10.980;2023-05-16T03:56:01;146.32;;;134.48;;
29210;SDS011;16250;49.932;10.980;2023-05-16T03:58:27;143.90;;;132.43;;
29210;SDS011;16250;49.932;10.980;2023-05-16T04:00:53;83.93;;;78.47;;
29210;SDS011;16250;49.932;10.980;2023-05-16T04:03:18;85.82;;;80.22;;
29210;SDS011;16250;49.932;10.980;2023-05-16T04:05:44;73.07;;;68.88;;
29210;SDS011;16250;49.932;10.980;2023-05-16T04:08:10;65.35;;;61.15;;
29210;SDS011;16250;49.932;10.980;2023-05-16T04:10:35;62.53;;;58.95;;
29210;SDS011;16250;49.932;10.980;2023-05-16T04:13:01;59.85;;;56.63;;
29210;SDS011;16250;49.932;10.980;2023-05-16T04:15:26;59.88;;;56.47;;
29210;SDS011;16250;49.932;10.980;2023-05-16T04:17:52;59.40;;;56.20;;
29210;SDS011;16250;49.932;10.980;2023-05-16T04:20:17;61.03;;;57.60;;
29210;SDS011;16250;49.932;10.980;2023-05-16T04:22:43;60.15;;;56.88;;
29210;SDS011;16250;49.932;10.980;2023-05-16T04:25:08;60.03;;;56.85;;
29210;SDS011;16250;49.932;10.980;2023-05-16T04:27:35;54.53;;;51.33;;
29210;SDS011;16250;49.932;10.980;2023-05-16T04:30:00;54.80;;;51.60;;
29210;SDS011;16250;49.932;10.980;2023-05-16T04:32:26;55.42;;;52.38;;
29210;SDS011;16250;49.932;10.980;2023-05-16T04:34:52;51.53;;;48.75;;
29210;SDS011;16250;49.932;10.980;2023-05-16T04:37:18;51.85;;;49.05;;
29210;SDS011;16250;49.932;10.980;2023-05-16T04:39:43;58.00;;;54.80;;
29210;SDS011;16250;49.932;10.980;2023-05-16T04:42:09;56.10;;;53.00;;
29210;SDS011;16250;49.932;10.980;2023-05-16T04:44:34;55.30;;;52.38;;
29210;SDS011;16250;49.932;10.980;2023-05-16T04:47:00;59.17;;;55.78;;
29210;SDS011;16250;49.932;10.980;2023-05-16T04:49:25;57.78;;;54.58;;
29210;SDS011;16250;49.932;10.980;2023-05-16T04:51:51;55.03;;;52.15;;
29210;SDS011;16250;49.932;10.980;2023-05-16T04:54:16;54.20;;;51.28;;
29210;SDS011;16250;49.932;10.980;2023-05-16T04:56:42;52.00;;;49.08;;
29210;SDS011;16250;49.932;10.980;2023-05-16T04:59:07;53.55;;;50.55;;
29210;SDS011;16250;49.932;10.980;2023-05-16T05:01:32;54.90;;;51.83;;
29210;SDS011;16250;49.932;10.980;2023-05-16T05:03:58;52.85;;;50.00;;
29210;SDS011;16250;49.932;10.980;2023-05-16T05:06:23;56.55;;;53.13;;
29210;SDS011;16250;49.932;10.980;2023-05-16T05:08:48;56.17;;;53.08;;
29210;SDS011;16250;49.932;10.980;2023-05-16T05:11:14;60.80;;;57.47;;
29210;SDS011;16250;49.932;10.980;2023-05-16T05:13:39;58.20;;;55.13;;
29210;SDS011;16250;49.932;10.980;2023-05-16T05:16:05;56.70;;;53.30;;
29210;SDS011;16250;49.932;10.980;2023-05-16T05:18:30;60.42;;;57.22;;
29210;SDS011;16250;49.932;10.980;2023-05-16T05:20:56;58.45;;;54.90;;
29210;SDS011;16250;49.932;10.980;2023-05-16T05:23:22;56.25;;;53.00;;
29210;SDS011;16250;49.932;10.980;2023-05-16T05:25:47;50.15;;;47.30;;
29210;SDS011;16250;49.932;10.980;2023-05-16T05:28:13;54.85;;;51.75;;
29210;SDS011;16250;49.932;10.980;2023-05-16T05:30:38;47.80;;;44.90;;
29210;SDS011;16250;49.932;10.980;2023-05-16T05:33:03;48.38;;;45.58;;
29210;SDS011;16250;49.932;10.980;2023-05-16T05:35:29;49.60;;;46.60;;
29210;SDS011;16250;49.932;10.980;2023-05-16T05:37:54;52.67;;;49.70;;
29210;SDS011;16250;49.932;10.980;2023-05-16T05:40:19;50.55;;;47.78;;
29210;SDS011;16250;49.932;10.980;2023-05-16T05:42:45;51.83;;;48.75;;
29210;SDS011;16250;49.932;10.980;2023-05-16T05:45:10;54.83;;;51.67;;
29210;SDS011;16250;49.932;10.980;2023-05-16T05:47:36;51.22;;;48.35;;
29210;SDS011;16250;49.932;10.980;2023-05-16T05:50:02;53.25;;;50.25;;
29210;SDS011;16250;49.932;10.980;2023-05-16T05:52:28;55.08;;;51.88;;
29210;SDS011;16250;49.932;10.980;2023-05-16T05:54:53;54.53;;;51.42;;
29210;SDS011;16250;49.932;10.980;2023-05-16T05:57:18;52.30;;;49.20;;
29210;SDS011;16250;49.932;10.980;2023-05-16T05:59:44;52.10;;;49.08;;
29210;SDS011;16250;49.932;10.980;2023-05-16T06:02:10;54.45;;;51.20;;
29210;SDS011;16250;49.932;10.980;2023-05-16T06:04:35;49.38;;;46.47;;
29210;SDS011;16250;49.932;10.980;2023-05-16T06:07:00;49.60;;;46.50;;
29210;SDS011;16250;49.932;10.980;2023-05-16T06:09:26;50.17;;;47.17;;
29210;SDS011;16250;49.932;10.980;2023-05-16T06:11:51;52.92;;;49.83;;
29210;SDS011;16250;49.932;10.980;2023-05-16T06:14:16;53.22;;;50.13;;
29210;SDS011;16250;49.932;10.980;2023-05-16T06:16:42;56.03;;;52.83;;
29210;SDS011;16250;49.932;10.980;2023-05-16T06:19:08;57.60;;;54.20;;
29210;SDS011;16250;49.932;10.980;2023-05-16T06:21:35;62.03;;;58.58;;
29210;SDS011;16250;49.932;10.980;2023-05-16T06:24:00;55.05;;;51.92;;
29210;SDS011;16250;49.932;10.980;2023-05-16T06:26:25;60.55;;;57.00;;
29210;SDS011;16250;49.932;10.980;2023-05-16T06:28:51;56.78;;;53.53;;
29210;SDS011;16250;49.932;10.980;2023-05-16T06:31:16;50.72;;;47.75;;
29210;SDS011;16250;49.932;10.980;2023-05-16T06:33:42;52.03;;;49.10;;
29210;SDS011;16250;49.932;10.980;2023-05-16T06:36:07;53.13;;;49.92;;
29210;SDS011;16250;49.932;10.980;2023-05-16T06:38:32;51.15;;;48.08;;
29210;SDS011;16250;49.932;10.980;2023-05-16T06:40:58;51.90;;;48.80;;
29210;SDS011;16250;49.932;10.980;2023-05-16T06:43:23;54.03;;;50.83;;
29210;SDS011;16250;49.932;10.980;2023-05-16T06:45:48;53.53;;;50.22;;
29210;SDS011;16250;49.932;10.980;2023-05-16T06:48:14;54.33;;;51.03;;
29210;SDS011;16250;49.932;10.980;2023-05-16T06:50:41;52.67;;;49.38;;
29210;SDS011;16250;49.932;10.980;2023-05-16T06:53:07;53.72;;;50.50;;
29210;SDS011;16250;49.932;10.980;2023-05-16T06:55:33;50.55;;;47.55;;
29210;SDS011;16250;49.932;10.980;2023-05-16T06:57:58;46.15;;;43.05;;
29210;SDS011;16250;49.932;10.980;2023-05-16T07:00:24;46.55;;;43.55;;
29210;SDS011;16250;49.932;10.980;2023-05-16T07:02:49;49.28;;;45.83;;
29210;SDS011;16250;49.932;10.980;2023-05-16T07:05:15;47.55;;;44.55;;
29210;SDS011;16250;49.932;10.980;2023-05-16T07:07:40;41.05;;;38.10;;
29210;SDS011;16250;49.932;10.980;2023-05-16T07:10:06;34.40;;;32.00;;
29210;SDS011;16250;49.932;10.980;2023-05-16T07:12:31;38.00;;;35.30;;
29210;SDS011;16250;49.932;10.980;2023-05-16T07:14:57;36.85;;;34.25;;
29210;SDS011;16250;49.932;10.980;2023-05-16T07:17:22;35.38;;;32.95;;
29210;SDS011;16250;49.932;10.980;2023-05-16T07:19:48;35.92;;;33.45;;
29210;SDS011;16250;49.932;10.980;2023-05-16T07:22:14;33.78;;;31.15;;
29210;SDS011;16250;49.932;10.980;2023-05-16T07:24:39;34.60;;;32.10;;
29210;SDS011;16250;49.932;10.980;2023-05-16T07:27:04;37.67;;;34.75;;
29210;SDS011;16250;49.932;10.980;2023-05-16T07:29:30;34.90;;;32.20;;
29210;SDS011;16250;49.932;10.980;2023-05-16T07:31:55;31.30;;;28.73;;
29210;SDS011;16250;49.932;10.980;2023-05-16T07:34:21;35.45;;;32.55;;
29210;SDS011;16250;49.932;10.980;2023-05-16T07:36:46;37.60;;;34.88;;
29210;SDS011;16250;49.932;10.980;2023-05-16T07:39:12;38.72;;;35.97;;
29210;SDS011;16250;49.932;10.980;2023-05-16T07:41:38;33.92;;;31.33;;
29210;SDS011;16250;49.932;10.980;2023-05-16T07:44:03;38.92;;;36.03;;
29210;SDS011;16250;49.932;10.980;2023-05-16T07:46:29;36.30;;;33.72;;
29210;SDS011;16250;49.932;10.980;2023-05-16T07:48:54;34.47;;;31.85;;
29210;SDS011;16250;49.932;10.980;2023-05-16T07:51:19;27.98;;;25.58;;
29210;SDS011;16250;49.932;10.980;2023-05-16T07:53:45;34.72;;;31.95;;
29210;SDS011;16250;49.932;10.980;2023-05-16T07:56:10;33.55;;;30.92;;
29210;SDS011;16250;49.932;10.980;2023-05-16T07:58:36;36.03;;;33.13;;
29210;SDS011;16250;49.932;10.980;2023-05-16T08:01:02;32.35;;;29.67;;
29210;SDS011;16250;49.932;10.980;2023-05-16T08:03:27;30.45;;;27.98;;
29210;SDS011;16250;49.932;10.980;2023-05-16T08:05:53;28.33;;;25.90;;
29210;SDS011;16250;49.932;10.980;2023-05-16T08:08:18;25.33;;;23.33;;
29210;SDS011;16250;49.932;10.980;2023-05-16T08:10:43;27.10;;;24.63;;
29210;SDS011;16250;49.932;10.980;2023-05-16T08:13:09;22.52;;;20.52;;
29210;SDS011;16250;49.932;10.980;2023-05-16T08:15:34;23.55;;;21.17;;
29210;SDS011;16250;49.932;10.980;2023-05-16T08:18:00;21.45;;;19.38;;
29210;SDS011;16250;49.932;10.980;2023-05-16T08:20:26;21.85;;;19.75;;
29210;SDS011;16250;49.932;10.980;2023-05-16T08:22:51;21.02;;;19.02;;
29210;SDS011;16250;49.932;10.980;2023-05-16T08:25:17;20.90;;;19.00;;
29210;SDS011;16250;49.932;10.980;2023-05-16T08:27:48;22.85;;;20.95;;
29210;SDS011;16250;49.932;10.980;2023-05-16T08:30:14;22.77;;;20.67;;
29210;SDS011;16250;49.932;10.980;2023-05-16T08:32:39;20.63;;;18.80;;
29210;SDS011;16250;49.932;10.980;2023-05-16T08:35:05;18.38;;;16.52;;
29210;SDS011;16250;49.932;10.980;2023-05-16T08:37:31;17.88;;;16.05;;
29210;SDS011;16250;49.932;10.980;2023-05-16T08:39:57;15.30;;;13.80;;
29210;SDS011;16250;49.932;10.980;2023-05-16T08:42:22;15.55;;;13.93;;
29210;SDS011;16250;49.932;10.980;2023-05-16T08:44:48;14.48;;;13.07;;
29210;SDS011;16250;49.932;10.980;2023-05-16T08:47:17;12.80;;;11.50;;
29210;SDS011;16250;49.932;10.980;2023-05-16T08:49:43;13.32;;;11.85;;
29210;SDS011;16250;49.932;10.980;2023-05-16T08:52:11;12.32;;;11.13;;
29210;SDS011;16250;49.932;10.980;2023-05-16T08:54:37;11.45;;;10.30;;
29210;SDS011;16250;49.932;10.980;2023-05-16T08:57:03;11.30;;;10.23;;
29210;SDS011;16250;49.932;10.980;2023-05-16T08:59:29;16.45;;;11.75;;
29210;SDS011;16250;49.932;10.980;2023-05-16T09:01:55;11.57;;;10.35;;
29210;SDS011;16250;49.932;10.980;2023-05-16T09:04:21;10.50;;;9.30;;
29210;SDS011;16250;49.932;10.980;2023-05-16T09:06:49;9.95;;;8.95;;
29210;SDS011;16250;49.932;10.980;2023-05-16T09:09:15;10.35;;;9.38;;
29210;SDS011;16250;49.932;10.980;2023-05-16T09:11:41;10.45;;;9.45;;
29210;SDS011;16250;49.932;10.980;2023-05-16T09:14:06;10.40;;;8.18;;
29210;SDS011;16250;49.932;10.980;2023-05-16T09:16:31;9.40;;;7.80;;
29210;SDS011;16250;49.932;10.980;2023-05-16T09:18:58;7.95;;;7.22;;
29210;SDS011;16250;49.932;10.980;2023-05-16T09:21:28;10.25;;;7.80;;
29210;SDS011;16250;49.932;10.980;2023-05-16T09:23:56;8.63;;;7.20;;
29210;SDS011;16250;49.932;10.980;2023-05-16T09:26:21;7.72;;;6.95;;
29210;SDS011;16250;49.932;10.980;2023-05-16T09:28:47;7.60;;;6.90;;
29210;SDS011;16250;49.932;10.980;2023-05-16T09:31:22;9.80;;;7.05;;
29210;SDS011;16250;49.932;10.980;2023-05-16T09:33:50;9.57;;;7.22;;
29210;SDS011;16250;49.932;10.980;2023-05-16T09:36:16;9.55;;;7.47;;
29210;SDS011;16250;49.932;10.980;2023-05-16T09:38:42;8.52;;;7.63;;
29210;SDS011;16250;49.932;10.980;2023-05-16T09:41:08;9.48;;;7.22;;
29210;SDS011;16250;49.932;10.980;2023-05-16T09:43:36;8.82;;;6.60;;
29210;SDS011;16250;49.932;10.980;2023-05-16T09:46:02;8.70;;;7.68;;
29210;SDS011;16250;49.932;10.980;2023-05-16T09:48:28;8.88;;;8.05;;
29210;SDS011;16250;49.932;10.980;2023-05-16T09:50:53;10.88;;;8.50;;
29210;SDS011;16250;49.932;10.980;2023-05-16T09:53:28;9.20;;;8.25;;
29210;SDS011;16250;49.932;10.980;2023-05-16T09:56:02;9.60;;;8.57;;
29210;SDS011;16250;49.932;10.980;2023-05-16T09:58:33;9.43;;;8.35;;
29210;SDS011;16250;49.932;10.980;2023-05-16T10:00:59;9.52;;;8.52;;
29210;SDS011;16250;49.932;10.980;2023-05-16T10:03:25;10.48;;;8.07;;
29210;SDS011;16250;49.932;10.980;2023-05-16T10:05:51;8.02;;;7.15;;
29210;SDS011;16250;49.932;10.980;2023-05-16T10:08:19;8.15;;;7.38;;
29210;SDS011;16250;49.932;10.980;2023-05-16T10:10:45;9.30;;;8.20;;
29210;SDS011;16250;49.932;10.980;2023-05-16T10:13:15;8.77;;;7.93;;
29210;SDS011;16250;49.932;10.980;2023-05-16T10:15:41;10.20;;;7.90;;
29210;SDS011;16250;49.932;10.980;2023-05-16T10:18:07;9.52;;;7.47;;
29210;SDS011;16250;49.932;10.980;2023-05-16T10:20:37;7.78;;;6.97;;
29210;SDS011;16250;49.932;10.980;2023-05-16T10:23:04;10.05;;;7.80;;
29210;SDS011;16250;49.932;10.980;2023-05-16T10:25:35;8.18;;;7.38;;
29210;SDS011;16250;49.932;10.980;2023-05-16T10:28:03;8.80;;;7.90;;
29210;SDS011;16250;49.932;10.980;2023-05-16T10:30:30;8.73;;;7.85;;
29210;SDS011;16250;49.932;10.980;2023-05-16T10:32:57;11.13;;;7.22;;
29210;SDS011;16250;49.932;10.980;2023-05-16T10:35:23;8.50;;;7.60;;
29210;SDS011;16250;49.932;10.980;2023-05-16T10:37:49;7.65;;;6.93;;
29210;SDS011;16250;49.932;10.980;2023-05-16T10:40:15;8.02;;;7.22;;
29210;SDS011;16250;49.932;10.980;2023-05-16T10:43:00;8.52;;;7.32;;
29210;SDS011;16250;49.932;10.980;2023-05-16T10:45:27;9.77;;;7.53;;
29210;SDS011;16250;49.932;10.980;2023-05-16T10:47:53;8.77;;;7.88;;
29210;SDS011;16250;49.932;10.980;2023-05-16T11:06:21;8.43;;;7.28;;
29210;SDS011;16250;49.932;10.980;2023-05-16T11:19:38;8.73;;;6.25;;
29210;SDS011;16250;49.932;10.980;2023-05-16T11:24:44;6.85;;;6.13;;
29210;SDS011;16250;49.932;10.980;2023-05-16T11:27:18;6.90;;;6.00;;
29210;SDS011;16250;49.932;10.980;2023-05-16T11:29:45;7.13;;;5.90;;
29210;SDS011;16250;49.932;10.980;2023-05-16T11:32:10;6.40;;;5.70;;
29210;SDS011;16250;49.932;10.980;2023-05-16T11:34:36;7.05;;;5.55;;
29210;SDS011;16250;49.932;10.980;2023-05-16T11:37:03;7.13;;;5.38;;
29210;SDS011;16250;49.932;10.980;2023-05-16T11:39:29;7.65;;;5.43;;
29210;SDS011;16250;49.932;10.980;2023-05-16T11:52:27;5.93;;;5.33;;
29210;SDS011;16250;49.932;10.980;2023-05-16T12:06:30;5.53;;;4.50;;
29210;SDS011;16250;49.932;10.980;2023-05-16T12:08:56;5.63;;;4.45;;
29210;SDS011;16250;49.932;10.980;2023-05-16T12:11:30;6.07;;;4.63;;
29210;SDS011;16250;49.932;10.980;2023-05-16T12:20:04;5.00;;;4.50;;
29210;SDS011;16250;49.932;10.980;2023-05-16T12:25:34;5.38;;;3.95;;
29210;SDS011;16250;49.932;10.980;2023-05-16T12:31:10;5.60;;;4.78;;
29210;SDS011;16250;49.932;10.980;2023-05-16T12:34:04;6.10;;;4.40;;
29210;SDS011;16250;49.932;10.980;2023-05-16T12:41:10;4.43;;;4.03;;
29210;SDS011;16250;49.932;10.980;2023-05-16T12:51:20;5.78;;;4.25;;
29210;SDS011;16250;49.932;10.980;2023-05-16T12:54:16;4.40;;;3.80;;
29210;SDS011;16250;49.932;10.980;2023-05-16T13:00:12;4.70;;;3.40;;
29210;SDS011;16250;49.932;10.980;2023-05-16T13:02:45;6.20;;;3.53;;
29210;SDS011;16250;49.932;10.980;2023-05-16T13:05:29;5.13;;;3.40;;
29210;SDS011;16250;49.932;10.980;2023-05-16T13:08:45;4.03;;;3.55;;
29210;SDS011;16250;49.932;10.980;2023-05-16T13:12:14;4.00;;;3.45;;
29210;SDS011;16250;49.932;10.980;2023-05-16T13:14:49;5.03;;;3.15;;
29210;SDS011;16250;49.932;10.980;2023-05-16T13:28:28;3.90;;;2.85;;
29210;SDS011;16250;49.932;10.980;2023-05-16T13:35:21;3.08;;;2.83;;
29210;SDS011;16250;49.932;10.980;2023-05-16T13:38:42;3.22;;;2.78;;
29210;SDS011;16250;49.932;10.980;2023-05-16T13:42:19;4.35;;;2.92;;
29210;SDS011;16250;49.932;10.980;2023-05-16T13:44:50;2.90;;;2.70;;
29210;SDS011;16250;49.932;10.980;2023-05-16T13:47:32;3.35;;;2.75;;
29210;SDS011;16250;49.932;10.980;2023-05-16T13:50:09;5.30;;;2.50;;
29210;SDS011;16250;49.932;10.980;2023-05-16T13:56:33;3.42;;;2.40;;
29210;SDS011;16250;49.932;10.980;2023-05-16T14:02:42;2.55;;;2.35;;
29210;SDS011;16250;49.932;10.980;2023-05-16T14:05:50;4.63;;;2.95;;
29210;SDS011;16250;49.932;10.980;2023-05-16T14:08:31;4.60;;;2.80;;
29210;SDS011;16250;49.932;10.980;2023-05-16T14:11:10;2.88;;;2.58;;
29210;SDS011;16250;49.932;10.980;2023-05-16T14:14:26;4.10;;;2.67;;
29210;SDS011;16250;49.932;10.980;2023-05-16T14:17:25;3.13;;;2.85;;
29210;SDS011;16250;49.932;10.980;2023-05-16T14:23:31;3.03;;;2.70;;
29210;SDS011;16250;49.932;10.980;2023-05-16T14:26:38;3.47;;;2.67;;
29210;SDS011;16250;49.932;10.980;2023-05-16T14:29:06;3.25;;;2.83;;
29210;SDS011;16250;49.932;10.980;2023-05-16T14:31:31;4.30;;;2.65;;
29210;SDS011;16250;49.932;10.980;2023-05-16T14:33:57;3.88;;;3.28;;
29210;SDS011;16250;49.932;10.980;2023-05-16T14:36:23;4.30;;;2.50;;
29210;SDS011;16250;49.932;10.980;2023-05-16T14:38:49;3.22;;;2.30;;
29210;SDS011;16250;49.932;10.980;2023-05-16T14:41:14;2.40;;;2.20;;
29210;SDS011;16250;49.932;10.980;2023-05-16T14:43:40;2.90;;;2.60;;
29210;SDS011;16250;49.932;10.980;2023-05-16T14:46:05;2.50;;;2.30;;
29210;SDS011;16250;49.932;10.980;2023-05-16T14:48:31;3.17;;;2.30;;
29210;SDS011;16250;49.932;10.980;2023-05-16T14:50:57;3.28;;;2.40;;
29210;SDS011;16250;49.932;10.980;2023-05-16T14:53:22;3.80;;;2.50;;
29210;SDS011;16250;49.932;10.980;2023-05-16T14:55:48;2.53;;;2.33;;
29210;SDS011;16250;49.932;10.980;2023-05-16T14:58:13;4.38;;;2.83;;
29210;SDS011;16250;49.932;10.980;2023-05-16T15:00:39;4.40;;;2.83;;
29210;SDS011;16250;49.932;10.980;2023-05-16T15:03:05;5.20;;;3.20;;
29210;SDS011;16250;49.932;10.980;2023-05-16T15:05:30;5.20;;;2.80;;
29210;SDS011;16250;49.932;10.980;2023-05-16T15:07:56;4.25;;;2.75;;
29210;SDS011;16250;49.932;10.980;2023-05-16T15:10:21;5.13;;;2.88;;
29210;SDS011;16250;49.932;10.980;2023-05-16T15:12:47;4.07;;;3.00;;
29210;SDS011;16250;49.932;10.980;2023-05-16T15:15:12;4.70;;;3.63;;
29210;SDS011;16250;49.932;10.980;2023-05-16T15:17:38;5.60;;;2.75;;
29210;SDS011;16250;49.932;10.980;2023-05-16T15:20:07;3.70;;;3.00;;
29210;SDS011;16250;49.932;10.980;2023-05-16T15:22:37;3.50;;;2.80;;
29210;SDS011;16250;49.932;10.980;2023-05-16T15:25:04;5.18;;;3.05;;
29210;SDS011;16250;49.932;10.980;2023-05-16T15:27:30;4.63;;;2.60;;
29210;SDS011;16250;49.932;10.980;2023-05-16T15:29:55;4.32;;;2.63;;
29210;SDS011;16250;49.932;10.980;2023-05-16T15:32:21;2.92;;;2.63;;
29210;SDS011;16250;49.932;10.980;2023-05-16T15:34:47;4.15;;;3.22;;
29210;SDS011;16250;49.932;10.980;2023-05-16T15:37:13;4.82;;;3.10;;
29210;SDS011;16250;49.932;10.980;2023-05-16T15:39:38;4.22;;;2.92;;
29210;SDS011;16250;49.932;10.980;2023-05-16T15:42:04;7.95;;;3.08;;
29210;SDS011;16250;49.932;10.980;2023-05-16T15:44:30;3.70;;;3.10;;
29210;SDS011;16250;49.932;10.980;2023-05-16T15:46:56;6.53;;;2.85;;
29210;SDS011;16250;49.932;10.980;2023-05-16T15:49:21;4.60;;;2.67;;
29210;SDS011;16250;49.932;10.980;2023-05-16T15:51:46;4.97;;;2.90;;
29210;SDS011;16250;49.932;10.980;2023-05-16T15:54:12;4.85;;;2.80;;
29210;SDS011;16250;49.932;10.980;2023-05-16T15:56:37;4.70;;;2.75;;
29210;SDS011;16250;49.932;10.980;2023-05-16T15:59:03;7.53;;;3.13;;
29210;SDS011;16250;49.932;10.980;2023-05-16T16:01:28;5.43;;;3.30;;
29210;SDS011;16250;49.932;10.980;2023-05-16T16:03:53;4.15;;;2.45;;
29210;SDS011;16250;49.932;10.980;2023-05-16T16:06:19;4.03;;;2.72;;
29210;SDS011;16250;49.932;10.980;2023-05-16T16:08:45;11.27;;;2.97;;
29210;SDS011;16250;49.932;10.980;2023-05-16T16:11:10;5.60;;;2.50;;
29210;SDS011;16250;49.932;10.980;2023-05-16T16:13:35;3.58;;;2.30;;
29210;SDS011;16250;49.932;10.980;2023-05-16T16:16:01;5.47;;;2.60;;
29210;SDS011;16250;49.932;10.980;2023-05-16T16:18:27;5.57;;;2.67;;
29210;SDS011;16250;49.932;10.980;2023-05-16T16:20:52;4.07;;;1.90;;
29210;SDS011;16250;49.932;10.980;2023-05-16T16:23:18;5.90;;;2.47;;
29210;SDS011;16250;49.932;10.980;2023-05-16T16:25:43;7.60;;;2.22;;
29210;SDS011;16250;49.932;10.980;2023-05-16T16:28:08;5.63;;;2.30;;
29210;SDS011;16250;49.932;10.980;2023-05-16T16:30:34;5.57;;;2.50;;
29210;SDS011;16250;49.932;10.980;2023-05-16T16:32:59;5.20;;;2.22;;
29210;SDS011;16250;49.932;10.980;2023-05-16T16:35:25;10.07;;;2.97;;
29210;SDS011;16250;49.932;10.980;2023-05-16T16:37:51;4.57;;;2.45;;
29210;SDS011;16250;49.932;10.980;2023-05-16T16:40:16;6.93;;;2.60;;
29210;SDS011;16250;49.932;10.980;2023-05-16T16:42:42;5.10;;;2.25;;
29210;SDS011;16250;49.932;10.980;2023-05-16T16:45:08;6.78;;;2.45;;